TimeMST,TemperatureF,Dew PointF,Humidity,Sea Level PressureIn,VisibilityMPH,Wind Direction,Wind SpeedMPH,Gust SpeedMPH,PrecipitationIn,Events,Conditions,WindDirDegrees,DateUTC
12:56 AM,45.0,37.9,76,29.52,-9999.0,SSW,18.4,-,N/A,,Unknown,210,2013-03-09 07:56:00
1:56 AM,46.0,37.0,71,29.50,-9999.0,SSW,21.9,27.6,N/A,,Unknown,210,2013-03-09 08:56:00
2:56 AM,44.1,35.1,71,29.47,-9999.0,SW,19.6,25.3,N/A,,Unknown,220,2013-03-09 09:56:00
3:56 AM,43.0,37.0,80,29.46,-9999.0,SW,15.0,24.2,N/A,,Unknown,220,2013-03-09 10:56:00
4:56 AM,43.0,36.0,76,29.44,-9999.0,SSW,23.0,-,N/A,,Unknown,210,2013-03-09 11:56:00
5:56 AM,42.1,35.1,76,29.46,-9999.0,SW,13.8,-,N/A,,Unknown,230,2013-03-09 12:56:00
6:56 AM,42.1,35.1,76,29.46,-9999.0,SW,12.7,-,N/A,,Unknown,230,2013-03-09 13:56:00
7:56 AM,46.9,33.1,59,29.47,-9999.0,WSW,15.0,23.0,N/A,,Unknown,240,2013-03-09 14:56:00
8:56 AM,52.0,30.0,43,29.47,-9999.0,WNW,12.7,21.9,N/A,,Unknown,290,2013-03-09 15:56:00
9:56 AM,54.0,30.0,40,29.47,-9999.0,NNW,12.7,24.2,N/A,,Unknown,340,2013-03-09 16:56:00
10:56 AM,54.0,33.1,45,29.47,-9999.0,NNW,16.1,-,N/A,,Unknown,340,2013-03-09 17:56:00
11:56 AM,54.0,34.0,47,29.47,-9999.0,NNW,15.0,23.0,N/A,,Unknown,340,2013-03-09 18:56:00
12:56 PM,55.0,33.1,43,29.44,-9999.0,North,20.7,26.5,N/A,,Unknown,360,2013-03-09 19:56:00
1:56 PM,44.1,34.0,68,29.51,-9999.0,North,26.5,32.2,N/A,,Unknown,350,2013-03-09 20:56:00
2:56 PM,35.1,33.1,92,29.59,-9999.0,North,23.0,32.2,0.02,,Unknown,350,2013-03-09 21:56:00
3:56 PM,34.0,32.0,92,29.63,-9999.0,NNW,23.0,29.9,N/A,,Unknown,340,2013-03-09 22:56:00
4:56 PM,32.0,30.9,96,29.63,-9999.0,North,23.0,36.8,N/A,,Unknown,350,2013-03-09 23:56:00
5:56 PM,30.9,28.9,92,29.68,-9999.0,North,31.1,42.6,N/A,,Unknown,360,2013-03-10 00:56:00
6:56 PM,30.9,28.9,92,29.73,-9999.0,North,38.0,48.3,N/A,,Unknown,350,2013-03-10 01:56:00
7:56 PM,30.0,28.9,96,29.77,-9999.0,North,38.0,49.5,N/A,,Unknown,360,2013-03-10 02:56:00
8:56 PM,30.0,28.9,96,29.80,-9999.0,North,40.3,50.6,N/A,,Unknown,360,2013-03-10 03:56:00
9:56 PM,30.0,28.9,96,29.82,-9999.0,North,40.3,49.5,N/A,,Unknown,350,2013-03-10 04:56:00
10:56 PM,30.0,28.9,96,29.85,-9999.0,North,39.1,47.2,N/A,,Unknown,360,2013-03-10 05:56:00